sensor_id;sensor_type;location;lat;lon;timestamp;temperature;humidity
43099;DHT22;28715;51.988;6.020;2023-02-28T00:00:01;2.90;94.80
43099;DHT22;28715;51.988;6.020;2023-02-28T00:02:33;2.90;94.80
43099;DHT22;28715;51.988;6.020;2023-02-28T00:04:59;3.00;94.90
43099;DHT22;28715;51.988;6.020;2023-02-28T00:07:27;3.00;94.80
43099;DHT22;28715;51.988;6.020;2023-02-28T00:09:53;3.10;94.90
43099;DHT22;28715;51.988;6.020;2023-02-28T00:12:18;3.10;95.00
43099;DHT22;28715;51.988;6.020;2023-02-28T00:14:44;3.20;95.30
43099;DHT22;28715;51.988;6.020;2023-02-28T00:17:09;3.30;95.10
43099;DHT22;28715;51.988;6.020;2023-02-28T00:19:35;3.30;95.00
43099;DHT22;28715;51.988;6.020;2023-02-28T00:22:01;3.30;94.90
43099;DHT22;28715;51.988;6.020;2023-02-28T00:24:26;3.40;94.90
43099;DHT22;28715;51.988;6.020;2023-02-28T00:26:52;3.40;94.90
43099;DHT22;28715;51.988;6.020;2023-02-28T00:29:17;3.50;94.90
43099;DHT22;28715;51.988;6.020;2023-02-28T00:31:43;3.50;94.80
43099;DHT22;28715;51.988;6.020;2023-02-28T00:34:08;3.50;94.80
43099;DHT22;28715;51.988;6.020;2023-02-28T00:36:34;3.50;94.90
43099;DHT22;28715;51.988;6.020;2023-02-28T00:39:00;3.60;95.00
43099;DHT22;28715;51.988;6.020;2023-02-28T00:41:25;3.60;94.90
43099;DHT22;28715;51.988;6.020;2023-02-28T00:43:51;3.60;94.70
43099;DHT22;28715;51.988;6.020;2023-02-28T00:46:17;3.60;95.00
43099;DHT22;28715;51.988;6.020;2023-02-28T00:48:42;3.60;94.70
43099;DHT22;28715;51.988;6.020;2023-02-28T00:51:08;3.70;95.00
43099;DHT22;28715;51.988;6.020;2023-02-28T00:53:34;3.70;94.90
43099;DHT22;28715;51.988;6.020;2023-02-28T00:56:00;3.80;94.70
43099;DHT22;28715;51.988;6.020;2023-02-28T00:58:26;3.80;94.60
43099;DHT22;28715;51.988;6.020;2023-02-28T01:00:52;3.80;94.50
43099;DHT22;28715;51.988;6.020;2023-02-28T01:03:20;3.80;94.60
43099;DHT22;28715;51.988;6.020;2023-02-28T01:05:46;3.80;94.70
43099;DHT22;28715;51.988;6.020;2023-02-28T01:08:13;3.70;94.70
43099;DHT22;28715;51.988;6.020;2023-02-28T01:10:39;3.70;94.80
43099;DHT22;28715;51.988;6.020;2023-02-28T01:13:05;3.80;94.90
43099;DHT22;28715;51.988;6.020;2023-02-28T01:15:30;3.80;94.80
43099;DHT22;28715;51.988;6.020;2023-02-28T01:17:57;3.90;94.70
43099;DHT22;28715;51.988;6.020;2023-02-28T01:20:23;3.90;94.80
43099;DHT22;28715;51.988;6.020;2023-02-28T01:22:49;3.90;94.60
43099;DHT22;28715;51.988;6.020;2023-02-28T01:25:15;3.90;94.60
43099;DHT22;28715;51.988;6.020;2023-02-28T01:27:40;3.90;94.40
43099;DHT22;28715;51.988;6.020;2023-02-28T01:30:08;3.90;94.40
43099;DHT22;28715;51.988;6.020;2023-02-28T01:32:34;3.90;94.40
43099;DHT22;28715;51.988;6.020;2023-02-28T01:34:59;4.00;94.30
43099;DHT22;28715;51.988;6.020;2023-02-28T01:37:25;4.00;94.20
43099;DHT22;28715;51.988;6.020;2023-02-28T01:39:50;4.00;94.20
43099;DHT22;28715;51.988;6.020;2023-02-28T01:42:16;4.00;94.20
43099;DHT22;28715;51.988;6.020;2023-02-28T01:47:26;4.10;94.30
43099;DHT22;28715;51.988;6.020;2023-02-28T01:49:52;4.10;94.20
43099;DHT22;28715;51.988;6.020;2023-02-28T01:52:19;4.10;94.30
43099;DHT22;28715;51.988;6.020;2023-02-28T01:54:49;4.20;94.50
43099;DHT22;28715;51.988;6.020;2023-02-28T01:57:19;4.20;94.60
43099;DHT22;28715;51.988;6.020;2023-02-28T01:59:49;4.20;94.70
43099;DHT22;28715;51.988;6.020;2023-02-28T02:02:19;4.20;94.70
43099;DHT22;28715;51.988;6.020;2023-02-28T02:04:54;4.20;94.70
43099;DHT22;28715;51.988;6.020;2023-02-28T02:07:20;4.20;94.70
43099;DHT22;28715;51.988;6.020;2023-02-28T02:09:46;4.20;94.70
43099;DHT22;28715;51.988;6.020;2023-02-28T02:15:21;4.20;94.70
43099;DHT22;28715;51.988;6.020;2023-02-28T02:17:56;4.10;94.60
43099;DHT22;28715;51.988;6.020;2023-02-28T02:20:46;4.10;94.40
43099;DHT22;28715;51.988;6.020;2023-02-28T02:26:18;4.10;94.50
43099;DHT22;28715;51.988;6.020;2023-02-28T02:29:18;4.10;94.90
43099;DHT22;28715;51.988;6.020;2023-02-28T02:31:52;4.10;94.60
43099;DHT22;28715;51.988;6.020;2023-02-28T02:37:22;4.10;94.70
43099;DHT22;28715;51.988;6.020;2023-02-28T02:40:14;4.10;94.60
43099;DHT22;28715;51.988;6.020;2023-02-28T02:45:36;4.10;94.70
43099;DHT22;28715;51.988;6.020;2023-02-28T02:48:05;4.10;94.60
43099;DHT22;28715;51.988;6.020;2023-02-28T02:51:00;4.10;94.50
43099;DHT22;28715;51.988;6.020;2023-02-28T02:53:29;4.10;94.60
43099;DHT22;28715;51.988;6.020;2023-02-28T02:55:58;4.10;94.60
43099;DHT22;28715;51.988;6.020;2023-02-28T02:58:29;4.10;94.60
43099;DHT22;28715;51.988;6.020;2023-02-28T03:00:59;4.10;94.60
43099;DHT22;28715;51.988;6.020;2023-02-28T03:03:27;4.10;94.70
43099;DHT22;28715;51.988;6.020;2023-02-28T03:05:57;4.10;94.70
43099;DHT22;28715;51.988;6.020;2023-02-28T03:08:22;4.10;94.70
43099;DHT22;28715;51.988;6.020;2023-02-28T03:10:55;4.10;94.70
43099;DHT22;28715;51.988;6.020;2023-02-28T03:13:55;4.10;94.60
43099;DHT22;28715;51.988;6.020;2023-02-28T03:16:32;4.10;94.60
43099;DHT22;28715;51.988;6.020;2023-02-28T03:19:33;4.10;94.50
43099;DHT22;28715;51.988;6.020;2023-02-28T03:27:23;4.00;94.10
43099;DHT22;28715;51.988;6.020;2023-02-28T03:30:00;4.00;94.10
43099;DHT22;28715;51.988;6.020;2023-02-28T03:32:56;4.00;94.10
43099;DHT22;28715;51.988;6.020;2023-02-28T03:35:26;4.00;94.10
43099;DHT22;28715;51.988;6.020;2023-02-28T03:37:58;4.00;94.00
43099;DHT22;28715;51.988;6.020;2023-02-28T03:40:30;4.10;93.90
43099;DHT22;28715;51.988;6.020;2023-02-28T03:43:07;4.10;93.80
43099;DHT22;28715;51.988;6.020;2023-02-28T03:45:36;4.00;93.70
43099;DHT22;28715;51.988;6.020;2023-02-28T03:51:07;4.00;93.60
43099;DHT22;28715;51.988;6.020;2023-02-28T03:53:37;4.00;93.40
43099;DHT22;28715;51.988;6.020;2023-02-28T03:58:54;4.10;93.30
43099;DHT22;28715;51.988;6.020;2023-02-28T04:01:28;4.10;93.20
43099;DHT22;28715;51.988;6.020;2023-02-28T04:03:56;4.10;93.20
43099;DHT22;28715;51.988;6.020;2023-02-28T04:06:23;4.20;93.20
43099;DHT22;28715;51.988;6.020;2023-02-28T04:08:49;4.20;93.30
43099;DHT22;28715;51.988;6.020;2023-02-28T04:13:40;4.20;93.30
43099;DHT22;28715;51.988;6.020;2023-02-28T04:16:09;4.20;93.20
43099;DHT22;28715;51.988;6.020;2023-02-28T04:18:38;4.20;93.20
43099;DHT22;28715;51.988;6.020;2023-02-28T04:21:05;4.20;93.00
43099;DHT22;28715;51.988;6.020;2023-02-28T04:23:31;4.20;92.90
43099;DHT22;28715;51.988;6.020;2023-02-28T04:25:57;4.20;92.60
43099;DHT22;28715;51.988;6.020;2023-02-28T04:28:22;4.20;92.30
43099;DHT22;28715;51.988;6.020;2023-02-28T04:30:54;4.20;92.10
43099;DHT22;28715;51.988;6.020;2023-02-28T04:33:20;4.20;92.20
43099;DHT22;28715;51.988;6.020;2023-02-28T04:35:45;4.20;92.00
43099;DHT22;28715;51.988;6.020;2023-02-28T04:38:11;4.20;91.80
43099;DHT22;28715;51.988;6.020;2023-02-28T04:40:36;4.20;91.70
43099;DHT22;28715;51.988;6.020;2023-02-28T04:43:02;4.20;91.50
43099;DHT22;28715;51.988;6.020;2023-02-28T04:45:28;4.20;91.40
43099;DHT22;28715;51.988;6.020;2023-02-28T04:47:57;4.20;91.40
43099;DHT22;28715;51.988;6.020;2023-02-28T04:50:23;4.20;91.60
43099;DHT22;28715;51.988;6.020;2023-02-28T04:52:49;4.20;91.60
43099;DHT22;28715;51.988;6.020;2023-02-28T04:55:14;4.20;91.80
43099;DHT22;28715;51.988;6.020;2023-02-28T04:57:40;4.20;91.50
43099;DHT22;28715;51.988;6.020;2023-02-28T05:00:09;4.10;91.40
43099;DHT22;28715;51.988;6.020;2023-02-28T05:02:37;4.10;91.30
43099;DHT22;28715;51.988;6.020;2023-02-28T05:05:04;4.20;91.40
43099;DHT22;28715;51.988;6.020;2023-02-28T05:07:30;4.10;91.40
43099;DHT22;28715;51.988;6.020;2023-02-28T05:09:55;4.20;91.60
43099;DHT22;28715;51.988;6.020;2023-02-28T05:12:21;4.10;91.50
43099;DHT22;28715;51.988;6.020;2023-02-28T05:14:46;4.20;91.60
43099;DHT22;28715;51.988;6.020;2023-02-28T05:17:12;4.20;91.70
43099;DHT22;28715;51.988;6.020;2023-02-28T05:19:37;4.10;91.70
43099;DHT22;28715;51.988;6.020;2023-02-28T05:22:03;4.10;91.70
43099;DHT22;28715;51.988;6.020;2023-02-28T05:24:29;4.10;91.80
43099;DHT22;28715;51.988;6.020;2023-02-28T05:26:54;4.10;91.80
43099;DHT22;28715;51.988;6.020;2023-02-28T05:29:20;4.10;91.80
43099;DHT22;28715;51.988;6.020;2023-02-28T05:31:46;4.10;91.90
43099;DHT22;28715;51.988;6.020;2023-02-28T05:34:12;4.10;92.00
43099;DHT22;28715;51.988;6.020;2023-02-28T05:36:38;4.10;92.00
43099;DHT22;28715;51.988;6.020;2023-02-28T05:39:06;4.10;92.00
43099;DHT22;28715;51.988;6.020;2023-02-28T05:41:32;4.00;92.00
43099;DHT22;28715;51.988;6.020;2023-02-28T05:43:58;4.00;92.20
43099;DHT22;28715;51.988;6.020;2023-02-28T05:46:25;3.90;92.20
43099;DHT22;28715;51.988;6.020;2023-02-28T05:48:51;3.80;92.20
43099;DHT22;28715;51.988;6.020;2023-02-28T05:51:16;3.80;92.20
43099;DHT22;28715;51.988;6.020;2023-02-28T05:53:43;3.70;92.30
43099;DHT22;28715;51.988;6.020;2023-02-28T05:56:09;3.80;92.40
43099;DHT22;28715;51.988;6.020;2023-02-28T05:58:34;3.70;92.20
43099;DHT22;28715;51.988;6.020;2023-02-28T06:01:52;3.70;92.30
43099;DHT22;28715;51.988;6.020;2023-02-28T06:04:15;3.60;92.40
43099;DHT22;28715;51.988;6.020;2023-02-28T06:06:43;3.60;92.40
43099;DHT22;28715;51.988;6.020;2023-02-28T06:09:10;3.60;92.50
43099;DHT22;28715;51.988;6.020;2023-02-28T06:11:36;3.60;92.40
43099;DHT22;28715;51.988;6.020;2023-02-28T06:14:03;3.70;92.70
43099;DHT22;28715;51.988;6.020;2023-02-28T06:16:30;3.70;92.70
43099;DHT22;28715;51.988;6.020;2023-02-28T06:19:01;3.70;92.50
43099;DHT22;28715;51.988;6.020;2023-02-28T06:21:27;3.70;92.70
43099;DHT22;28715;51.988;6.020;2023-02-28T06:23:53;3.70;92.70
43099;DHT22;28715;51.988;6.020;2023-02-28T06:26:20;3.70;92.40
43099;DHT22;28715;51.988;6.020;2023-02-28T06:28:46;3.70;92.50
43099;DHT22;28715;51.988;6.020;2023-02-28T06:31:14;3.70;92.70
43099;DHT22;28715;51.988;6.020;2023-02-28T06:33:41;3.70;92.50
43099;DHT22;28715;51.988;6.020;2023-02-28T06:36:08;3.70;92.30
43099;DHT22;28715;51.988;6.020;2023-02-28T06:38:34;3.70;92.60
43099;DHT22;28715;51.988;6.020;2023-02-28T06:41:00;3.70;92.70
43099;DHT22;28715;51.988;6.020;2023-02-28T06:43:31;3.70;92.50
43099;DHT22;28715;51.988;6.020;2023-02-28T06:45:59;3.60;92.10
43099;DHT22;28715;51.988;6.020;2023-02-28T06:51:48;3.60;92.00
43099;DHT22;28715;51.988;6.020;2023-02-28T06:54:14;3.60;91.80
43099;DHT22;28715;51.988;6.020;2023-02-28T06:56:39;3.60;91.90
43099;DHT22;28715;51.988;6.020;2023-02-28T06:59:05;3.60;92.20
43099;DHT22;28715;51.988;6.020;2023-02-28T07:01:31;3.60;92.50
43099;DHT22;28715;51.988;6.020;2023-02-28T07:03:58;3.60;92.60
43099;DHT22;28715;51.988;6.020;2023-02-28T07:06:25;3.70;92.80
43099;DHT22;28715;51.988;6.020;2023-02-28T07:08:52;3.70;92.90
43099;DHT22;28715;51.988;6.020;2023-02-28T07:11:18;3.70;92.80
43099;DHT22;28715;51.988;6.020;2023-02-28T07:13:44;3.70;92.90
43099;DHT22;28715;51.988;6.020;2023-02-28T07:16:11;3.70;93.10
43099;DHT22;28715;51.988;6.020;2023-02-28T07:18:37;3.80;93.10
43099;DHT22;28715;51.988;6.020;2023-02-28T07:21:05;3.80;93.00
43099;DHT22;28715;51.988;6.020;2023-02-28T07:23:31;3.80;93.10
43099;DHT22;28715;51.988;6.020;2023-02-28T07:25:57;3.90;93.30
43099;DHT22;28715;51.988;6.020;2023-02-28T07:28:22;4.00;93.50
43099;DHT22;28715;51.988;6.020;2023-02-28T07:30:48;4.10;93.60
43099;DHT22;28715;51.988;6.020;2023-02-28T07:33:14;4.10;93.60
43099;DHT22;28715;51.988;6.020;2023-02-28T07:35:40;4.20;93.60
43099;DHT22;28715;51.988;6.020;2023-02-28T07:38:05;4.30;93.90
43099;DHT22;28715;51.988;6.020;2023-02-28T07:40:33;4.40;93.60
43099;DHT22;28715;51.988;6.020;2023-02-28T07:43:03;4.40;93.30
43099;DHT22;28715;51.988;6.020;2023-02-28T07:45:29;4.50;92.80
43099;DHT22;28715;51.988;6.020;2023-02-28T07:47:56;4.50;90.10
43099;DHT22;28715;51.988;6.020;2023-02-28T07:50:22;4.70;89.50
43099;DHT22;28715;51.988;6.020;2023-02-28T07:52:48;5.00;89.90
43099;DHT22;28715;51.988;6.020;2023-02-28T07:55:17;5.40;87.90
43099;DHT22;28715;51.988;6.020;2023-02-28T07:58:07;5.80;83.30
43099;DHT22;28715;51.988;6.020;2023-02-28T08:00:32;5.80;78.40
43099;DHT22;28715;51.988;6.020;2023-02-28T08:03:05;5.80;79.50
43099;DHT22;28715;51.988;6.020;2023-02-28T08:05:31;5.90;79.40
43099;DHT22;28715;51.988;6.020;2023-02-28T08:08:00;6.00;78.80
43099;DHT22;28715;51.988;6.020;2023-02-28T08:10:25;6.00;76.30
43099;DHT22;28715;51.988;6.020;2023-02-28T08:12:51;6.00;77.50
43099;DHT22;28715;51.988;6.020;2023-02-28T08:15:16;6.20;76.40
43099;DHT22;28715;51.988;6.020;2023-02-28T08:17:42;6.30;76.00
43099;DHT22;28715;51.988;6.020;2023-02-28T08:20:08;6.50;75.50
43099;DHT22;28715;51.988;6.020;2023-02-28T08:22:35;6.80;74.40
43099;DHT22;28715;51.988;6.020;2023-02-28T08:25:01;7.00;73.00
43099;DHT22;28715;51.988;6.020;2023-02-28T08:27:26;7.20;71.90
43099;DHT22;28715;51.988;6.020;2023-02-28T08:29:52;7.50;72.50
43099;DHT22;28715;51.988;6.020;2023-02-28T08:32:17;7.70;69.50
43099;DHT22;28715;51.988;6.020;2023-02-28T08:34:43;7.70;68.90
43099;DHT22;28715;51.988;6.020;2023-02-28T08:37:08;7.40;68.90
43099;DHT22;28715;51.988;6.020;2023-02-28T08:39:35;7.30;70.50
43099;DHT22;28715;51.988;6.020;2023-02-28T08:42:02;7.10;70.10
43099;DHT22;28715;51.988;6.020;2023-02-28T08:44:27;6.90;70.70
43099;DHT22;28715;51.988;6.020;2023-02-28T08:46:53;6.90;72.00
43099;DHT22;28715;51.988;6.020;2023-02-28T08:49:18;7.00;70.50
43099;DHT22;28715;51.988;6.020;2023-02-28T08:51:44;7.30;70.20
43099;DHT22;28715;51.988;6.020;2023-02-28T08:54:10;7.70;69.30
43099;DHT22;28715;51.988;6.020;2023-02-28T08:56:41;7.90;68.80
43099;DHT22;28715;51.988;6.020;2023-02-28T08:59:09;8.20;67.80
43099;DHT22;28715;51.988;6.020;2023-02-28T09:01:34;8.50;65.30
43099;DHT22;28715;51.988;6.020;2023-02-28T09:04:02;8.70;63.20
43099;DHT22;28715;51.988;6.020;2023-02-28T09:06:27;8.80;64.10
43099;DHT22;28715;51.988;6.020;2023-02-28T09:08:55;9.00;63.80
43099;DHT22;28715;51.988;6.020;2023-02-28T09:11:23;9.30;61.20
43099;DHT22;28715;51.988;6.020;2023-02-28T09:13:49;9.20;59.90
43099;DHT22;28715;51.988;6.020;2023-02-28T09:16:16;9.40;60.30
43099;DHT22;28715;51.988;6.020;2023-02-28T09:18:42;9.50;60.10
43099;DHT22;28715;51.988;6.020;2023-02-28T09:21:10;9.40;59.40
43099;DHT22;28715;51.988;6.020;2023-02-28T09:23:36;9.20;59.60
43099;DHT22;28715;51.988;6.020;2023-02-28T09:26:05;9.10;58.50
43099;DHT22;28715;51.988;6.020;2023-02-28T09:28:31;9.20;59.10
43099;DHT22;28715;51.988;6.020;2023-02-28T09:30:57;9.20;59.10
43099;DHT22;28715;51.988;6.020;2023-02-28T09:33:24;9.30;58.90
43099;DHT22;28715;51.988;6.020;2023-02-28T09:35:50;9.30;59.10
43099;DHT22;28715;51.988;6.020;2023-02-28T09:38:17;9.60;60.60
43099;DHT22;28715;51.988;6.020;2023-02-28T09:41:18;10.00;59.50
43099;DHT22;28715;51.988;6.020;2023-02-28T09:43:49;10.30;57.90
43099;DHT22;28715;51.988;6.020;2023-02-28T09:46:40;10.00;56.40
43099;DHT22;28715;51.988;6.020;2023-02-28T09:49:19;9.90;56.30
43099;DHT22;28715;51.988;6.020;2023-02-28T09:52:02;9.70;57.90
43099;DHT22;28715;51.988;6.020;2023-02-28T09:54:30;9.80;57.60
43099;DHT22;28715;51.988;6.020;2023-02-28T09:59:41;9.70;57.90
43099;DHT22;28715;51.988;6.020;2023-02-28T10:04:50;10.20;58.30
43099;DHT22;28715;51.988;6.020;2023-02-28T10:07:43;10.50;57.00
43099;DHT22;28715;51.988;6.020;2023-02-28T10:10:20;10.60;56.80
43099;DHT22;28715;51.988;6.020;2023-02-28T10:12:48;10.80;55.00
43099;DHT22;28715;51.988;6.020;2023-02-28T10:15:17;11.00;55.20
43099;DHT22;28715;51.988;6.020;2023-02-28T10:17:47;10.90;53.40
43099;DHT22;28715;51.988;6.020;2023-02-28T10:20:19;10.60;54.70
43099;DHT22;28715;51.988;6.020;2023-02-28T10:25:26;10.70;53.60
43099;DHT22;28715;51.988;6.020;2023-02-28T10:30:32;9.90;54.90
43099;DHT22;28715;51.988;6.020;2023-02-28T10:32:58;9.80;56.60
43099;DHT22;28715;51.988;6.020;2023-02-28T10:35:27;9.90;56.30
43099;DHT22;28715;51.988;6.020;2023-02-28T10:37:57;10.00;55.20
43099;DHT22;28715;51.988;6.020;2023-02-28T10:45:23;10.20;56.10
43099;DHT22;28715;51.988;6.020;2023-02-28T10:48:00;10.40;57.30
43099;DHT22;28715;51.988;6.020;2023-02-28T10:55:39;10.20;54.50
43099;DHT22;28715;51.988;6.020;2023-02-28T10:58:28;10.00;55.90
43099;DHT22;28715;51.988;6.020;2023-02-28T11:00:54;9.70;56.90
43099;DHT22;28715;51.988;6.020;2023-02-28T11:03:28;9.60;57.10
43099;DHT22;28715;51.988;6.020;2023-02-28T11:05:55;9.30;58.00
43099;DHT22;28715;51.988;6.020;2023-02-28T11:08:21;9.30;57.90
43099;DHT22;28715;51.988;6.020;2023-02-28T11:10:56;9.30;57.60
43099;DHT22;28715;51.988;6.020;2023-02-28T11:13:29;9.40;58.10
43099;DHT22;28715;51.988;6.020;2023-02-28T11:15:57;9.50;57.00
43099;DHT22;28715;51.988;6.020;2023-02-28T11:18:32;9.40;58.00
43099;DHT22;28715;51.988;6.020;2023-02-28T11:21:02;9.50;58.10
43099;DHT22;28715;51.988;6.020;2023-02-28T11:23:30;9.60;58.50
43099;DHT22;28715;51.988;6.020;2023-02-28T11:26:00;9.80;57.70
43099;DHT22;28715;51.988;6.020;2023-02-28T11:28:32;9.80;57.30
43099;DHT22;28715;51.988;6.020;2023-02-28T11:36:29;9.20;56.90
43099;DHT22;28715;51.988;6.020;2023-02-28T11:39:03;9.10;57.20
43099;DHT22;28715;51.988;6.020;2023-02-28T11:47:00;9.00;56.30
43099;DHT22;28715;51.988;6.020;2023-02-28T11:54:54;9.30;57.80
43099;DHT22;28715;51.988;6.020;2023-02-28T12:05:46;9.60;57.20
43099;DHT22;28715;51.988;6.020;2023-02-28T12:16:45;9.00;58.20
43099;DHT22;28715;51.988;6.020;2023-02-28T12:19:21;8.70;57.00
43099;DHT22;28715;51.988;6.020;2023-02-28T12:21:51;8.70;59.30
43099;DHT22;28715;51.988;6.020;2023-02-28T12:27:14;8.80;59.80
43099;DHT22;28715;51.988;6.020;2023-02-28T12:30:03;8.80;59.30
43099;DHT22;28715;51.988;6.020;2023-02-28T12:32:36;8.70;58.40
43099;DHT22;28715;51.988;6.020;2023-02-28T12:37:37;8.80;57.90
43099;DHT22;28715;51.988;6.020;2023-02-28T12:40:14;8.70;60.00
43099;DHT22;28715;51.988;6.020;2023-02-28T12:42:51;8.80;61.70
43099;DHT22;28715;51.988;6.020;2023-02-28T12:45:23;8.90;61.30
43099;DHT22;28715;51.988;6.020;2023-02-28T12:48:00;8.90;60.80
43099;DHT22;28715;51.988;6.020;2023-02-28T12:50:28;8.80;60.20
43099;DHT22;28715;51.988;6.020;2023-02-28T12:53:23;8.70;60.00
43099;DHT22;28715;51.988;6.020;2023-02-28T12:56:09;8.70;57.70
43099;DHT22;28715;51.988;6.020;2023-02-28T12:58:49;8.70;59.60
43099;DHT22;28715;51.988;6.020;2023-02-28T13:01:26;8.60;58.30
43099;DHT22;28715;51.988;6.020;2023-02-28T13:04:14;8.60;58.00
43099;DHT22;28715;51.988;6.020;2023-02-28T13:09:38;8.20;58.20
43099;DHT22;28715;51.988;6.020;2023-02-28T13:12:15;8.20;63.90
43099;DHT22;28715;51.988;6.020;2023-02-28T13:14:42;8.40;61.20
43099;DHT22;28715;51.988;6.020;2023-02-28T13:22:46;8.70;59.00
43099;DHT22;28715;51.988;6.020;2023-02-28T13:27:47;8.50;60.00
43099;DHT22;28715;51.988;6.020;2023-02-28T13:33:23;8.40;60.80
43099;DHT22;28715;51.988;6.020;2023-02-28T13:38:37;8.40;61.50
43099;DHT22;28715;51.988;6.020;2023-02-28T13:41:40;8.40;62.00
43099;DHT22;28715;51.988;6.020;2023-02-28T13:44:17;8.50;60.10
43099;DHT22;28715;51.988;6.020;2023-02-28T13:49:27;8.40;60.20
43099;DHT22;28715;51.988;6.020;2023-02-28T13:52:17;8.40;60.10
43099;DHT22;28715;51.988;6.020;2023-02-28T13:55:14;8.40;61.70
43099;DHT22;28715;51.988;6.020;2023-02-28T14:06:33;8.70;60.50
43099;DHT22;28715;51.988;6.020;2023-02-28T14:11:39;8.60;60.90
43099;DHT22;28715;51.988;6.020;2023-02-28T14:14:08;8.70;62.00
43099;DHT22;28715;51.988;6.020;2023-02-28T14:16:41;8.70;62.40
43099;DHT22;28715;51.988;6.020;2023-02-28T14:19:24;8.80;61.90
43099;DHT22;28715;51.988;6.020;2023-02-28T14:21:58;8.80;62.20
43099;DHT22;28715;51.988;6.020;2023-02-28T14:36:12;8.60;62.40
43099;DHT22;28715;51.988;6.020;2023-02-28T14:38:43;8.60;61.20
43099;DHT22;28715;51.988;6.020;2023-02-28T14:41:22;8.60;61.10
43099;DHT22;28715;51.988;6.020;2023-02-28T14:43:55;8.50;61.20
43099;DHT22;28715;51.988;6.020;2023-02-28T14:46:22;8.50;61.90
43099;DHT22;28715;51.988;6.020;2023-02-28T14:48:49;8.40;62.10
43099;DHT22;28715;51.988;6.020;2023-02-28T14:51:23;8.40;60.70
43099;DHT22;28715;51.988;6.020;2023-02-28T14:53:56;8.40;62.40
43099;DHT22;28715;51.988;6.020;2023-02-28T14:56:26;8.40;60.70
43099;DHT22;28715;51.988;6.020;2023-02-28T14:58:54;8.40;61.80
43099;DHT22;28715;51.988;6.020;2023-02-28T15:01:22;8.40;61.80
43099;DHT22;28715;51.988;6.020;2023-02-28T15:03:48;8.40;61.40
43099;DHT22;28715;51.988;6.020;2023-02-28T15:06:22;8.50;61.00
43099;DHT22;28715;51.988;6.020;2023-02-28T15:09:07;8.50;61.50
43099;DHT22;28715;51.988;6.020;2023-02-28T15:11:33;8.50;62.00
43099;DHT22;28715;51.988;6.020;2023-02-28T15:14:00;8.50;61.00
43099;DHT22;28715;51.988;6.020;2023-02-28T15:16:33;8.50;62.80
43099;DHT22;28715;51.988;6.020;2023-02-28T15:19:06;8.40;62.00
43099;DHT22;28715;51.988;6.020;2023-02-28T15:21:41;8.40;62.40
43099;DHT22;28715;51.988;6.020;2023-02-28T15:27:04;8.40;60.50
43099;DHT22;28715;51.988;6.020;2023-02-28T15:29:48;8.30;61.50
43099;DHT22;28715;51.988;6.020;2023-02-28T15:32:36;8.20;61.80
43099;DHT22;28715;51.988;6.020;2023-02-28T15:43:32;8.10;63.70
43099;DHT22;28715;51.988;6.020;2023-02-28T15:46:06;8.10;62.80
43099;DHT22;28715;51.988;6.020;2023-02-28T15:49:12;8.10;63.40
43099;DHT22;28715;51.988;6.020;2023-02-28T15:51:42;8.00;62.50
43099;DHT22;28715;51.988;6.020;2023-02-28T15:54:22;8.00;62.90
43099;DHT22;28715;51.988;6.020;2023-02-28T15:56:52;7.90;62.50
43099;DHT22;28715;51.988;6.020;2023-02-28T15:59:21;7.90;62.80
43099;DHT22;28715;51.988;6.020;2023-02-28T16:04:33;7.90;63.60
43099;DHT22;28715;51.988;6.020;2023-02-28T16:09:24;7.70;62.40
43099;DHT22;28715;51.988;6.020;2023-02-28T16:11:52;7.70;64.50
43099;DHT22;28715;51.988;6.020;2023-02-28T16:14:26;7.70;65.50
43099;DHT22;28715;51.988;6.020;2023-02-28T16:17:07;7.70;65.90
43099;DHT22;28715;51.988;6.020;2023-02-28T16:19:36;7.60;65.10
43099;DHT22;28715;51.988;6.020;2023-02-28T16:22:02;7.50;64.70
43099;DHT22;28715;51.988;6.020;2023-02-28T16:24:27;7.40;64.10
43099;DHT22;28715;51.988;6.020;2023-02-28T16:26:55;7.40;65.70
43099;DHT22;28715;51.988;6.020;2023-02-28T16:29:30;7.40;67.10
43099;DHT22;28715;51.988;6.020;2023-02-28T16:31:56;7.40;67.60
43099;DHT22;28715;51.988;6.020;2023-02-28T16:34:23;7.40;66.80
43099;DHT22;28715;51.988;6.020;2023-02-28T16:36:49;7.40;66.00
43099;DHT22;28715;51.988;6.020;2023-02-28T16:39:15;7.30;66.80
43099;DHT22;28715;51.988;6.020;2023-02-28T16:41:45;7.30;67.00
43099;DHT22;28715;51.988;6.020;2023-02-28T16:44:16;7.20;68.20
43099;DHT22;28715;51.988;6.020;2023-02-28T16:46:43;7.20;68.50
43099;DHT22;28715;51.988;6.020;2023-02-28T16:49:12;7.10;68.50
43099;DHT22;28715;51.988;6.020;2023-02-28T16:51:38;7.00;69.00
43099;DHT22;28715;51.988;6.020;2023-02-28T16:54:04;6.90;69.20
43099;DHT22;28715;51.988;6.020;2023-02-28T16:56:29;6.90;70.00
43099;DHT22;28715;51.988;6.020;2023-02-28T16:58:59;6.80;70.60
43099;DHT22;28715;51.988;6.020;2023-02-28T17:01:26;6.80;70.80
43099;DHT22;28715;51.988;6.020;2023-02-28T17:03:52;6.70;71.40
43099;DHT22;28715;51.988;6.020;2023-02-28T17:06:23;6.70;71.70
43099;DHT22;28715;51.988;6.020;2023-02-28T17:08:50;6.60;72.10
43099;DHT22;28715;51.988;6.020;2023-02-28T17:11:16;6.60;72.50
43099;DHT22;28715;51.988;6.020;2023-02-28T17:13:42;6.50;72.60
43099;DHT22;28715;51.988;6.020;2023-02-28T17:16:31;6.50;73.10
43099;DHT22;28715;51.988;6.020;2023-02-28T17:19:00;6.40;73.60
43099;DHT22;28715;51.988;6.020;2023-02-28T17:21:26;6.30;73.10
43099;DHT22;28715;51.988;6.020;2023-02-28T17:23:51;6.20;73.60
43099;DHT22;28715;51.988;6.020;2023-02-28T17:26:19;6.20;73.70
43099;DHT22;28715;51.988;6.020;2023-02-28T17:28:48;6.10;74.10
43099;DHT22;28715;51.988;6.020;2023-02-28T17:31:14;6.00;74.40
43099;DHT22;28715;51.988;6.020;2023-02-28T17:33:40;5.90;74.40
43099;DHT22;28715;51.988;6.020;2023-02-28T17:36:08;5.80;74.30
43099;DHT22;28715;51.988;6.020;2023-02-28T17:38:35;5.70;74.90
43099;DHT22;28715;51.988;6.020;2023-02-28T17:41:01;5.70;75.00
43099;DHT22;28715;51.988;6.020;2023-02-28T17:43:26;5.60;75.30
43099;DHT22;28715;51.988;6.020;2023-02-28T17:45:53;5.50;75.90
43099;DHT22;28715;51.988;6.020;2023-02-28T17:48:19;5.50;76.30
43099;DHT22;28715;51.988;6.020;2023-02-28T17:50:45;5.50;77.40
43099;DHT22;28715;51.988;6.020;2023-02-28T17:53:10;5.40;77.00
43099;DHT22;28715;51.988;6.020;2023-02-28T17:55:36;5.30;77.20
43099;DHT22;28715;51.988;6.020;2023-02-28T17:58:02;5.30;77.00
43099;DHT22;28715;51.988;6.020;2023-02-28T18:00:29;5.30;76.80
43099;DHT22;28715;51.988;6.020;2023-02-28T18:02:55;5.20;76.00
43099;DHT22;28715;51.988;6.020;2023-02-28T18:05:21;5.30;77.00
43099;DHT22;28715;51.988;6.020;2023-02-28T18:07:46;5.20;76.60
43099;DHT22;28715;51.988;6.020;2023-02-28T18:10:15;5.20;75.90
43099;DHT22;28715;51.988;6.020;2023-02-28T18:12:47;5.20;76.00
43099;DHT22;28715;51.988;6.020;2023-02-28T18:15:14;5.20;76.30
43099;DHT22;28715;51.988;6.020;2023-02-28T18:17:40;5.10;75.40
43099;DHT22;28715;51.988;6.020;2023-02-28T18:20:06;5.10;75.50
43099;DHT22;28715;51.988;6.020;2023-02-28T18:22:33;5.10;76.30
43099;DHT22;28715;51.988;6.020;2023-02-28T18:24:59;5.00;76.10
43099;DHT22;28715;51.988;6.020;2023-02-28T18:27:25;5.00;76.30
43099;DHT22;28715;51.988;6.020;2023-02-28T18:29:50;5.00;75.50